Time;durP1;ratioP1;P1;durP2;ratioP2;P2;SDS_P1;SDS_P2;PMS_P1;PMS_P2;Temp;Humidity;BMP_temperature;BMP_pressure;BME280_temperature;BME280_humidity;BME280_pressure;Samples;Min_cycle;Max_cycle;Signal;HPM_P1;HPM_P2
2023/08/05 00:01:36;;;;;;;7.18;3.85;;;;;;;17.51;100.00;101578.19;5116620;28;20051;-63
2023/08/05 00:04:04;;;;;;;7.43;3.70;;;;;;;17.48;100.00;101576.84;5116707;28;20070;-62
2023/08/05 00:06:32;;;;;;;8.25;4.40;;;;;;;17.46;100.00;101570.81;5117331;28;20088;-63
2023/08/05 00:08:59;;;;;;;9.02;4.22;;;;;;;17.46;100.00;101565.31;5099202;28;20503;-63
2023/08/05 00:11:27;;;;;;;9.50;4.18;;;;;;;17.46;100.00;101568.91;5115694;28;20048;-66
2023/08/05 00:13:55;;;;;;;8.90;4.10;;;;;;;17.46;100.00;101568.91;5095891;28;20050;-65
2023/08/05 00:16:23;;;;;;;9.35;4.00;;;;;;;17.48;100.00;101562.28;5096682;28;20040;-66
2023/08/05 00:18:50;;;;;;;7.03;4.20;;;;;;;17.48;100.00;101568.59;5115749;28;20125;-65
2023/08/05 00:21:19;;;;;;;8.65;4.10;;;;;;;17.49;100.00;101564.75;5116081;28;20055;-63
2023/08/05 00:23:47;;;;;;;10.38;4.13;;;;;;;17.48;100.00;101557.56;5115998;28;20043;-64
2023/08/05 00:26:16;;;;;;;10.32;4.13;;;;;;;17.48;100.00;101563.09;5116127;28;20039;-63
2023/08/05 00:28:43;;;;;;;7.68;3.75;;;;;;;17.46;100.00;101560.66;5117154;28;20039;-62
2023/08/05 00:31:11;;;;;;;6.97;3.50;;;;;;;17.45;100.00;101558.97;5115381;28;20036;-63
2023/08/05 00:33:39;;;;;;;10.32;4.47;;;;;;;17.42;100.00;101562.34;5117099;28;20044;-62
2023/08/05 00:36:07;;;;;;;7.70;3.83;;;;;;;17.39;100.00;101560.19;5114540;28;20043;-65
2023/08/05 00:38:35;;;;;;;7.75;3.75;;;;;;;17.39;100.00;101554.69;5116502;28;20047;-62
2023/08/05 00:41:03;;;;;;;9.38;4.15;;;;;;;17.40;100.00;101553.56;5115003;28;20511;-64
2023/08/05 00:43:31;;;;;;;8.68;3.83;;;;;;;17.41;100.00;101557.13;5115324;28;20472;-63
2023/08/05 00:46:00;;;;;;;7.90;4.07;;;;;;;17.41;100.00;101557.97;5098275;28;20050;-62
2023/08/05 00:48:28;;;;;;;8.38;3.90;;;;;;;17.41;100.00;101540.59;5098318;28;20070;-64
2023/08/05 00:50:56;;;;;;;6.65;3.60;;;;;;;17.40;100.00;101537.03;5115235;28;20035;-64
2023/08/05 00:53:24;;;;;;;11.27;4.63;;;;;;;17.38;100.00;101539.25;5116227;28;20054;-63
2023/08/05 00:55:54;;;;;;;8.30;4.22;;;;;;;17.37;100.00;101528.53;5115523;28;20491;-63
2023/08/05 00:58:22;;;;;;;5.85;3.85;;;;;;;17.37;100.00;101528.53;5095141;28;20052;-65
2023/08/05 01:00:51;;;;;;;11.65;4.50;;;;;;;17.35;100.00;101522.50;5114831;28;20124;-65
2023/08/05 01:03:18;;;;;;;8.52;4.13;;;;;;;17.34;100.00;101524.44;5116206;28;20055;-65
2023/08/05 01:05:48;;;;;;;6.80;3.78;;;;;;;17.32;100.00;101517.56;5114935;28;20048;-61
2023/08/05 01:08:19;;;;;;;7.57;3.80;;;;;;;17.30;100.00;101520.63;5115184;28;20039;-62
2023/08/05 01:10:46;;;;;;;7.97;4.30;;;;;;;17.30;100.00;101517.88;5107852;28;20050;-63
2023/08/05 01:13:14;;;;;;;7.45;3.67;;;;;;;17.31;100.00;101513.19;5115952;28;20418;-64
2023/08/05 01:15:42;;;;;;;8.90;4.70;;;;;;;17.31;100.00;101511.25;5116039;28;20051;-64
2023/08/05 01:18:10;;;;;;;8.32;4.00;;;;;;;17.31;100.00;101504.94;5113623;28;20048;-64
2023/08/05 01:20:41;;;;;;;7.15;4.10;;;;;;;17.29;100.00;101499.69;5097910;28;20043;-64
2023/08/05 01:23:19;;;;;;;11.63;4.28;;;;;;;17.27;100.00;101501.97;5113597;28;20039;-64
2023/08/05 01:25:46;;;;;;;7.15;4.40;;;;;;;17.25;100.00;101498.69;5114330;28;20046;-63
2023/08/05 01:28:15;;;;;;;9.70;4.93;;;;;;;17.24;100.00;101494.28;5113925;28;20092;-63
2023/08/05 01:30:43;;;;;;;7.82;4.47;;;;;;;17.23;100.00;101500.91;5097452;28;20055;-64
2023/08/05 01:33:13;;;;;;;10.00;4.55;;;;;;;17.23;100.00;101487.13;5097880;28;20059;-63
2023/08/05 01:35:46;;;;;;;8.35;4.65;;;;;;;17.20;100.00;101496.00;5096005;28;20071;-64
2023/08/05 01:38:16;;;;;;;10.45;4.68;;;;;;;17.20;100.00;101501.50;5114123;28;20057;-64
2023/08/05 01:40:44;;;;;;;10.38;4.57;;;;;;;17.19;100.00;101499.84;5112843;28;20036;-63
2023/08/05 01:43:12;;;;;;;9.80;4.65;;;;;;;17.15;100.00;101504.31;5114195;28;20060;-63
2023/08/05 01:45:40;;;;;;;8.27;4.22;;;;;;;17.14;100.00;101508.19;5114142;28;20492;-63
2023/08/05 01:48:08;;;;;;;8.93;4.78;;;;;;;17.16;100.00;101505.97;5114298;28;20055;-63
2023/08/05 01:50:36;;;;;;;10.20;4.90;;;;;;;17.14;100.00;101505.44;5093003;28;20416;-63
2023/08/05 01:53:04;;;;;;;8.88;4.60;;;;;;;17.13;100.00;101509.31;5113069;28;20051;-64
2023/08/05 01:55:32;;;;;;;9.18;4.80;;;;;;;17.12;100.00;101504.91;5113811;28;20040;-62
2023/08/05 01:57:59;;;;;;;7.80;4.40;;;;;;;17.11;100.00;101497.78;5113541;28;20043;-63
2023/08/05 02:00:27;;;;;;;7.93;4.18;;;;;;;17.11;100.00;101497.78;5112470;28;20043;-63
2023/08/05 02:02:56;;;;;;;7.13;4.07;;;;;;;17.10;100.00;101496.13;5113395;28;20055;-64
2023/08/05 02:05:24;;;;;;;8.50;4.72;;;;;;;17.10;100.00;101496.13;5114760;28;20039;-63
2023/08/05 02:07:51;;;;;;;7.10;4.28;;;;;;;17.11;100.00;101497.78;5113621;28;20408;-63
2023/08/05 02:10:19;;;;;;;7.30;4.28;;;;;;;17.10;100.00;101502.47;5096677;28;20055;-63
2023/08/05 02:12:47;;;;;;;11.38;4.25;;;;;;;17.10;100.00;101493.34;5113626;28;20403;-63
2023/08/05 02:15:15;;;;;;;7.22;4.05;;;;;;;17.09;100.00;101494.50;5113453;28;20100;-62
2023/08/05 02:17:42;;;;;;;7.15;4.18;;;;;;;17.09;100.00;101495.28;5113982;28;20505;-63
2023/08/05 02:20:11;;;;;;;8.60;4.30;;;;;;;17.09;100.00;101495.28;5113452;28;20511;-62
2023/08/05 02:22:38;;;;;;;6.30;4.25;;;;;;;17.08;100.00;101507.44;5114038;28;20403;-62
2023/08/05 02:25:06;;;;;;;8.82;5.15;;;;;;;17.07;100.00;101510.47;5111660;28;20047;-64
2023/08/05 02:27:34;;;;;;;8.43;4.65;;;;;;;17.04;100.00;101509.94;5113398;28;20047;-62
2023/08/05 02:30:02;;;;;;;10.93;4.95;;;;;;;17.03;100.00;101507.50;5097386;28;20052;-62
2023/08/05 02:32:33;;;;;;;8.40;4.82;;;;;;;17.03;100.00;101493.75;5109673;28;20053;-65
2023/08/05 02:35:00;;;;;;;10.80;4.30;;;;;;;17.01;100.00;101494.03;5095656;28;20067;-63
2023/08/05 02:37:28;;;;;;;8.38;4.70;;;;;;;17.01;100.00;101491.28;5114557;28;20045;-63
2023/08/05 02:39:57;;;;;;;8.00;4.38;;;;;;;17.02;100.00;101484.63;5113358;28;20047;-63
2023/08/05 02:42:24;;;;;;;8.73;3.97;;;;;;;17.00;100.00;101478.63;5113540;28;20043;-63
2023/08/05 02:44:52;;;;;;;9.82;4.32;;;;;;;16.99;100.00;101468.72;5058665;28;20439;-61
2023/08/05 02:47:20;;;;;;;9.40;4.85;;;;;;;17.00;100.00;101469.53;5094454;28;20051;-63
2023/08/05 02:49:48;;;;;;;8.82;4.78;;;;;;;16.98;100.00;101488.28;5089691;28;20078;-62
2023/08/05 02:52:16;;;;;;;8.82;4.45;;;;;;;16.96;100.00;101483.09;5113074;28;20043;-62
2023/08/05 02:54:43;;;;;;;7.30;4.22;;;;;;;16.96;100.00;101477.56;5113960;28;20510;-63
2023/08/05 02:57:11;;;;;;;9.43;4.68;;;;;;;16.97;100.00;101476.44;5112586;28;20506;-62
2023/08/05 02:59:39;;;;;;;7.93;4.20;;;;;;;16.95;100.00;101478.69;5113519;28;20051;-64
2023/08/05 03:02:06;;;;;;;6.60;3.70;;;;;;;16.94;100.00;101473.47;5113239;28;20044;-65
2023/08/05 03:04:34;;;;;;;9.23;3.88;;;;;;;16.91;100.00;101469.38;5096115;28;20046;-63
2023/08/05 03:07:02;;;;;;;7.55;4.30;;;;;;;16.90;100.00;101475.19;5096121;28;20074;-66
2023/08/05 03:09:30;;;;;;;8.60;4.32;;;;;;;16.87;100.00;101471.09;5113269;28;20502;-63
2023/08/05 03:11:58;;;;;;;8.30;4.10;;;;;;;16.86;100.00;101463.94;5113411;28;20055;-62
2023/08/05 03:14:26;;;;;;;9.02;4.25;;;;;;;16.85;100.00;101470.56;5079710;28;20055;-64
2023/08/05 03:16:54;;;;;;;8.20;3.78;;;;;;;16.84;100.00;101460.66;5113765;28;20058;-62
2023/08/05 03:19:22;;;;;;;9.25;4.00;;;;;;;16.81;100.00;101455.72;5113604;28;20056;-63
2023/08/05 03:21:52;;;;;;;8.55;3.92;;;;;;;16.81;100.00;101461.25;5079040;28;20043;-63
2023/08/05 03:24:20;;;;;;;6.88;3.70;;;;;;;16.80;100.00;101448.59;5096234;28;20058;-64
2023/08/05 03:26:52;;;;;;;5.35;3.95;;;;;;;16.80;100.00;101451.34;5096506;28;20039;-63
2023/08/05 03:29:20;;;;;;;7.63;4.00;;;;;;;16.79;100.00;101449.72;5099156;28;20058;-64
2023/08/05 03:31:49;;;;;;;8.80;4.05;;;;;;;16.79;100.00;101453.28;5096221;28;20118;-65
2023/08/05 03:34:20;;;;;;;9.80;4.55;;;;;;;16.81;100.00;101441.97;5124311;28;20054;-62
2023/08/05 03:36:48;;;;;;;7.22;4.28;;;;;;;16.81;100.00;101439.22;5121577;28;20688;-61
2023/08/05 03:39:16;;;;;;;10.75;4.32;;;;;;;16.81;100.00;101437.31;5120123;28;20051;-64
2023/08/05 03:41:45;;;;;;;7.07;3.80;;;;;;;16.80;100.00;101438.41;5133109;28;20047;-63
2023/08/05 03:44:13;;;;;;;7.57;4.53;;;;;;;16.78;100.00;101429.63;5098486;28;20052;-59
2023/08/05 03:46:41;;;;;;;8.88;4.30;;;;;;;16.77;100.00;101425.22;5114658;28;20040;-63
2023/08/05 03:49:09;;;;;;;9.73;4.00;;;;;;;16.75;100.00;101418.38;5116824;28;20491;-63
2023/08/05 03:51:37;;;;;;;10.52;4.20;;;;;;;16.75;100.00;101423.88;5083290;28;20522;-62
2023/08/05 03:54:07;;;;;;;7.53;4.05;;;;;;;16.74;100.00;101422.22;5116276;28;20056;-64
2023/08/05 03:56:35;;;;;;;7.72;4.88;;;;;;;16.72;100.00;101408.78;5115868;28;20441;-62
2023/08/05 03:59:04;;;;;;;8.07;4.45;;;;;;;16.71;100.00;101401.63;5114065;28;20507;-65
2023/08/05 04:01:34;;;;;;;8.48;4.35;;;;;;;16.70;100.00;101394.47;5115468;28;20040;-63
2023/08/05 04:04:02;;;;;;;9.05;4.68;;;;;;;16.71;100.00;101395.31;5114555;28;20047;-60
2023/08/05 04:06:31;;;;;;;8.85;4.55;;;;;;;16.70;100.00;101400.00;5114574;28;20059;-63
2023/08/05 04:08:59;;;;;;;10.73;4.53;;;;;;;16.69;100.00;101398.38;5116463;28;20091;-63
2023/08/05 04:11:27;;;;;;;7.72;4.18;;;;;;;16.67;100.00;101391.50;5112804;28;20035;-65
2023/08/05 04:13:58;;;;;;;10.52;4.55;;;;;;;16.64;100.00;101397.59;5115702;28;20415;-63
2023/08/05 04:16:28;;;;;;;8.75;4.18;;;;;;;16.61;100.00;101397.06;5114112;28;20453;-62
2023/08/05 04:18:58;;;;;;;8.50;4.20;;;;;;;16.63;100.00;101399.53;5115970;28;20052;-62
2023/08/05 04:21:30;;;;;;;10.40;4.80;;;;;;;16.61;100.00;101397.06;5098364;28;20150;-63
2023/08/05 04:23:59;;;;;;;9.57;4.15;;;;;;;16.60;100.00;101400.94;5116438;28;20052;-63
2023/08/05 04:26:30;;;;;;;11.13;4.93;;;;;;;16.60;100.00;101406.44;5115225;28;20051;-63
2023/08/05 04:28:58;;;;;;;9.45;4.65;;;;;;;16.61;100.00;101399.00;5099059;28;20044;-63
2023/08/05 04:31:26;;;;;;;8.23;4.53;;;;;;;16.64;100.00;101386.59;5115123;28;20044;-63
2023/08/05 04:33:53;;;;;;;10.30;4.43;;;;;;;16.64;100.00;101381.09;5069073;28;20490;-63
2023/08/05 04:36:21;;;;;;;12.00;4.88;;;;;;;16.64;100.00;101378.34;5114750;28;20062;-64
2023/08/05 04:38:49;;;;;;;10.02;5.10;;;;;;;16.63;100.00;101366.50;5114547;28;20044;-65
2023/08/05 04:41:16;;;;;;;9.07;4.85;;;;;;;16.61;100.00;101358.53;5116417;28;20351;-63
2023/08/05 04:43:44;;;;;;;11.15;5.00;;;;;;;16.60;100.00;101356.91;5107840;28;20044;-64
2023/08/05 04:46:12;;;;;;;6.93;4.90;;;;;;;16.60;100.00;101356.91;5115077;28;20047;-65
2023/08/05 04:48:40;;;;;;;7.80;4.75;;;;;;;16.60;100.00;101358.84;5116131;28;20052;-62
2023/08/05 04:51:07;;;;;;;10.05;4.93;;;;;;;16.59;100.00;101355.25;5116174;28;20430;-65
2023/08/05 04:53:35;;;;;;;11.32;5.40;;;;;;;16.57;100.00;101346.50;5114558;28;20048;-65
2023/08/05 04:56:03;;;;;;;10.80;5.68;;;;;;;16.51;100.00;101353.19;5116617;28;20055;-63
2023/08/05 04:58:31;;;;;;;10.57;5.90;;;;;;;16.42;100.00;101352.19;5115372;28;20039;-63
2023/08/05 05:00:59;;;;;;;8.48;5.28;;;;;;;16.41;100.00;101350.56;5082007;28;20047;-64
2023/08/05 05:03:26;;;;;;;9.15;5.75;;;;;;;16.42;100.00;101354.94;5098650;28;20058;-63
2023/08/05 05:05:55;;;;;;;11.07;5.53;;;;;;;16.40;100.00;101362.66;5115392;28;20440;-63
2023/08/05 05:08:23;;;;;;;14.50;6.00;;;;;;;16.42;100.00;101360.44;5078110;28;20044;-64
2023/08/05 05:10:51;;;;;;;9.50;5.88;;;;;;;16.43;100.00;101350.25;5078187;28;20486;-66
2023/08/05 05:13:19;;;;;;;10.93;6.15;;;;;;;16.44;100.00;101352.72;5098578;28;20048;-63
2023/08/05 05:15:48;;;;;;;10.82;6.03;;;;;;;16.46;100.00;101355.19;5115739;28;20136;-62
2023/08/05 05:18:16;;;;;;;10.68;5.93;;;;;;;16.47;100.00;101349.38;5113469;28;20048;-64
2023/08/05 05:20:50;;;;;;;9.80;6.13;;;;;;;16.50;100.00;101348.81;5114378;28;20104;-64
2023/08/05 05:23:17;;;;;;;9.55;5.40;;;;;;;16.52;100.00;101346.56;5114982;28;20047;-64
2023/08/05 05:25:45;;;;;;;9.27;5.93;;;;;;;16.52;100.00;101351.25;5111984;28;20059;-62
2023/08/05 05:28:13;;;;;;;10.63;6.18;;;;;;;16.52;100.00;101348.50;5095144;28;20048;-63
2023/08/05 05:30:41;;;;;;;9.95;6.38;;;;;;;16.50;100.00;101346.06;5095672;28;20101;-63
2023/08/05 05:33:08;;;;;;;11.05;6.28;;;;;;;16.47;100.00;101345.81;5112937;28;20043;-62
2023/08/05 05:35:36;;;;;;;8.82;5.88;;;;;;;16.46;100.00;101338.69;5115312;28;20074;-64
2023/08/05 05:38:04;;;;;;;9.18;5.72;;;;;;;16.47;100.00;101338.38;5114324;28;20060;-62
2023/08/05 05:40:32;;;;;;;10.02;6.20;;;;;;;16.48;100.00;101340.03;5115838;28;20122;-63
2023/08/05 05:42:59;;;;;;;14.35;6.75;;;;;;;16.49;100.00;101332.59;5114525;28;20044;-62
2023/08/05 05:45:28;;;;;;;10.93;6.07;;;;;;;16.49;100.00;101333.41;5095629;28;20054;-62
2023/08/05 05:47:56;;;;;;;10.25;6.03;;;;;;;16.50;100.00;101342.47;5114903;28;20547;-62
2023/08/05 05:50:23;;;;;;;8.80;6.28;;;;;;;16.50;100.00;101329.56;5097223;28;20044;-63
2023/08/05 05:52:53;;;;;;;9.65;6.15;;;;;;;16.50;100.00;101340.56;5114951;28;20052;-66
2023/08/05 05:55:21;;;;;;;11.73;6.35;;;;;;;16.51;100.00;101339.44;5115772;28;20119;-62
2023/08/05 05:57:49;;;;;;;12.10;7.22;;;;;;;16.52;100.00;101332.81;5112051;28;20043;-61
2023/08/05 06:00:17;;;;;;;11.35;6.32;;;;;;;16.50;100.00;101326.81;5113936;28;20480;-61
2023/08/05 06:02:44;;;;;;;11.05;6.50;;;;;;;16.50;100.00;101326.81;5096822;28;20422;-61
2023/08/05 06:05:12;;;;;;;11.68;6.97;;;;;;;16.54;100.00;101330.56;5093270;28;20054;-63
2023/08/05 06:07:40;;;;;;;12.85;7.40;;;;;;;16.57;100.00;101335.50;5107991;28;20058;-62
2023/08/05 06:10:08;;;;;;;10.90;6.65;;;;;;;16.56;100.00;101333.84;5113019;28;20414;-63
2023/08/05 06:12:37;;;;;;;15.43;8.07;;;;;;;16.57;100.00;101330.00;5114257;27;20043;-61
2023/08/05 06:15:08;;;;;;;10.85;7.80;;;;;;;16.54;100.00;101327.00;5110330;28;20058;-65
2023/08/05 06:17:36;;;;;;;13.35;7.82;;;;;;;16.54;100.00;101325.06;5113055;28;20047;-62
2023/08/05 06:20:04;;;;;;;13.45;7.80;;;;;;;16.57;100.00;101323.66;5104908;28;20073;-66
2023/08/05 06:22:32;;;;;;;14.43;7.53;;;;;;;16.58;100.00;101320.63;5112560;28;20112;-65
2023/08/05 06:25:00;;;;;;;13.45;7.38;;;;;;;16.58;100.00;101320.63;5093981;28;20408;-62
2023/08/05 06:27:28;;;;;;;12.13;6.95;;;;;;;16.59;100.00;101316.75;5092581;28;20407;-65
2023/08/05 06:29:55;;;;;;;11.90;7.43;;;;;;;16.57;100.00;101316.25;5110231;28;20044;-63
2023/08/05 06:32:23;;;;;;;15.40;6.80;;;;;;;16.57;100.00;101312.66;5093527;28;20391;-63
2023/08/05 06:34:51;;;;;;;11.60;6.88;;;;;;;16.60;100.00;101318.41;5110983;28;20036;-63
2023/08/05 06:37:19;;;;;;;9.07;5.85;;;;;;;16.65;100.00;101313.94;5114007;28;20043;-62
2023/08/05 06:39:47;;;;;;;10.85;6.20;;;;;;;16.69;100.00;101314.97;5095680;28;20043;-62
2023/08/05 06:42:14;;;;;;;9.48;6.20;;;;;;;16.73;100.00;101310.53;5113499;28;20059;-63
2023/08/05 06:44:44;;;;;;;9.93;5.97;;;;;;;16.76;100.00;101309.91;5113047;28;20044;-62
2023/08/05 06:47:12;;;;;;;10.80;6.28;;;;;;;16.78;100.00;101303.03;5111310;28;20040;-63
2023/08/05 06:49:39;;;;;;;9.05;6.13;;;;;;;16.80;100.00;101305.50;5113254;28;20052;-64
2023/08/05 06:52:07;;;;;;;10.20;6.32;;;;;;;16.84;100.00;101306.53;5112627;28;20051;-63
2023/08/05 06:54:35;;;;;;;12.75;6.95;;;;;;;16.85;100.00;101302.66;5112433;28;20058;-64
2023/08/05 06:57:03;;;;;;;11.73;6.63;;;;;;;16.87;100.00;101303.19;5112693;28;20056;-64
2023/08/05 06:59:31;;;;;;;11.95;6.68;;;;;;;16.89;100.00;101302.91;5110917;28;20043;-62
2023/08/05 07:02:00;;;;;;;11.45;7.07;;;;;;;16.89;100.00;101298.22;5113220;28;20473;-65
2023/08/05 07:04:28;;;;;;;11.07;6.75;;;;;;;16.91;100.00;101295.13;5112973;28;20047;-63
2023/08/05 07:06:56;;;;;;;11.50;7.32;;;;;;;16.94;100.00;101297.31;5114009;28;20057;-64
2023/08/05 07:09:24;;;;;;;10.82;7.07;;;;;;;16.95;100.00;101291.47;5112962;28;20051;-64
2023/08/05 07:11:54;;;;;;;10.23;6.95;;;;;;;16.97;100.00;101286.50;5094115;28;20054;-64
2023/08/05 07:14:22;;;;;;;13.63;8.10;;;;;;;16.96;100.00;101289.56;5113692;28;20044;-65
2023/08/05 07:16:49;;;;;;;15.43;7.60;;;;;;;16.93;100.00;101282.75;5114190;28;20104;-64
2023/08/05 07:19:17;;;;;;;12.85;7.35;;;;;;;16.94;100.00;101278.03;5111911;28;20052;-61
2023/08/05 07:21:45;;;;;;;12.27;7.50;;;;;;;16.98;100.00;101277.16;5112533;28;20063;-63
2023/08/05 07:24:13;;;;;;;11.77;6.93;;;;;;;17.03;100.00;101277.06;5112564;28;20058;-64
2023/08/05 07:26:41;;;;;;;11.90;7.25;;;;;;;17.08;100.00;101275.31;5094494;28;20059;-63
2023/08/05 07:29:08;;;;;;;11.23;7.28;;;;;;;17.12;100.00;101265.34;5112968;28;20054;-64
2023/08/05 07:31:36;;;;;;;10.90;7.25;;;;;;;17.17;100.00;101270.75;5095480;28;20048;-62
2023/08/05 07:34:04;;;;;;;13.63;7.50;;;;;;;17.19;100.00;101269.34;5112056;28;20062;-63
2023/08/05 07:36:32;;;;;;;13.00;6.88;;;;;;;17.23;100.00;101272.31;5114252;28;20050;-63
2023/08/05 07:39:03;;;;;;;9.98;6.25;;;;;;;17.24;100.00;101273.94;5112891;28;20048;-63
2023/08/05 07:41:31;;;;;;;11.32;6.78;;;;;;;17.24;100.00;101271.19;5113639;28;20043;-64
2023/08/05 07:44:00;;;;;;;11.13;6.82;;;;;;;17.24;100.00;101277.53;5112023;28;20044;-63
2023/08/05 07:46:31;;;;;;;12.23;6.70;;;;;;;17.26;100.00;101268.97;5095917;28;20070;-64
2023/08/05 07:49:00;;;;;;;16.98;6.88;;;;;;;17.28;100.00;101266.72;5091847;28;20048;-63
2023/08/05 07:51:29;;;;;;;11.23;7.32;;;;;;;17.30;100.00;101270.00;5092010;28;20051;-63
2023/08/05 07:53:57;;;;;;;10.82;6.32;;;;;;;17.34;100.00;101271.03;5092599;28;20063;-64
2023/08/05 07:56:25;;;;;;;9.55;4.95;;;;;;;17.35;100.00;101258.88;5097758;28;20112;-63
2023/08/05 07:58:53;;;;;;;10.70;5.55;;;;;;;17.36;100.00;101257.75;5085491;28;20158;-63
2023/08/05 08:01:22;;;;;;;12.30;6.05;;;;;;;17.35;100.00;101252.56;5119001;28;20201;-64
2023/08/05 08:03:53;;;;;;;10.70;6.25;;;;;;;17.34;100.00;101249.00;5121761;28;20111;-63
2023/08/05 08:06:21;;;;;;;13.82;7.00;;;;;;;17.36;100.00;101246.72;5117187;28;20468;-65
2023/08/05 08:08:51;;;;;;;11.70;6.97;;;;;;;17.37;100.00;101242.88;5126793;28;20094;-63
2023/08/05 08:11:18;;;;;;;13.50;6.82;;;;;;;17.36;100.00;101238.47;5127599;28;20107;-62
2023/08/05 08:13:46;;;;;;;12.55;7.03;;;;;;;17.36;100.00;101235.72;5106016;28;20196;-62
2023/08/05 08:16:15;;;;;;;10.75;6.65;;;;;;;17.39;100.00;101234.28;5113094;28;20048;-62
2023/08/05 08:18:43;;;;;;;11.95;6.22;;;;;;;17.42;100.00;101230.94;5113178;28;20053;-62
2023/08/05 08:21:11;;;;;;;10.23;6.30;;;;;;;17.45;100.00;101231.13;5114067;28;20051;-64
2023/08/05 08:23:39;;;;;;;10.45;6.13;;;;;;;17.51;100.00;101229.13;5116229;28;20039;-64
2023/08/05 08:26:07;;;;;;;10.65;6.00;;;;;;;17.54;100.00;101222.19;5094655;28;20040;-62
2023/08/05 08:28:34;;;;;;;8.93;5.82;;;;;;;17.56;100.00;101222.69;5110275;28;20047;-65
2023/08/05 08:31:02;;;;;;;10.07;5.85;;;;;;;17.57;100.00;101208.59;5117020;28;20054;-63
2023/08/05 08:33:30;;;;;;;11.05;6.75;;;;;;;17.57;100.00;101210.53;5115651;28;20063;-64
2023/08/05 08:35:58;;;;;;;9.70;5.93;;;;;;;17.58;100.00;101203.91;5098618;28;20053;-63
2023/08/05 08:38:26;;;;;;;11.82;6.47;;;;;;;17.60;100.00;101202.47;5116648;28;20808;-64
2023/08/05 08:40:58;;;;;;;10.57;5.78;;;;;;;17.60;100.00;101204.41;5098648;28;20062;-63
2023/08/05 08:43:28;;;;;;;9.70;5.60;;;;;;;17.61;100.00;101186.78;5099306;28;20051;-62
2023/08/05 08:45:55;;;;;;;11.02;5.88;;;;;;;17.61;100.00;101198.59;5117014;28;20051;-64
2023/08/05 08:48:24;;;;;;;9.18;5.50;;;;;;;17.65;100.00;101190.53;5114969;28;20048;-64
2023/08/05 08:50:53;;;;;;;10.77;4.97;;;;;;;17.67;100.00;101188.28;5115615;28;20040;-62
2023/08/05 08:53:21;;;;;;;8.98;4.80;;;;;;;17.68;100.00;101178.91;5098656;28;20402;-63
2023/08/05 08:55:52;;;;;;;9.45;5.18;;;;;;;17.75;100.00;101176.56;5113737;28;20069;-66
2023/08/05 08:58:20;;;;;;;9.15;5.45;;;;;;;17.81;100.00;101171.78;5113454;28;20508;-64
2023/08/05 09:00:48;;;;;;;10.55;5.18;;;;;;;17.88;100.00;101164.72;5115086;28;20051;-63
2023/08/05 09:03:18;;;;;;;10.07;5.30;;;;;;;17.92;100.00;101164.09;5115345;28;20108;-64
2023/08/05 09:05:50;;;;;;;9.63;5.72;;;;;;;17.95;100.00;101164.31;5116214;28;20048;-64
2023/08/05 09:08:18;;;;;;;14.25;5.70;;;;;;;17.99;100.00;101158.97;5112857;28;20095;-64
2023/08/05 09:10:46;;;;;;;10.85;5.15;;;;;;;18.03;100.00;101160.00;5116357;28;20059;-63
2023/08/05 09:13:16;;;;;;;8.55;5.22;;;;;;;18.05;100.00;101149.47;5116401;28;20039;-65
2023/08/05 09:15:45;;;;;;;12.88;5.05;;;;;;;18.08;100.00;101151.59;5116626;28;20036;-62
2023/08/05 09:18:13;;;;;;;10.43;5.10;;;;;;;18.14;100.00;101141.28;5113253;28;20071;-65
2023/08/05 09:20:40;;;;;;;8.13;4.60;;;;;;;18.24;100.00;101133.56;5115412;28;20408;-65
2023/08/05 09:23:10;;;;;;;8.10;4.18;;;;;;;18.32;97.63;101129.25;5115967;28;20348;-63
2023/08/05 09:25:42;;;;;;;8.45;4.45;;;;;;;18.39;97.09;101120.53;5115275;28;20055;-63
2023/08/05 09:28:10;;;;;;;7.53;3.88;;;;;;;18.45;96.85;101108.25;5092308;28;20047;-64
2023/08/05 09:30:38;;;;;;;7.60;4.00;;;;;;;18.48;95.41;101111.19;5098954;28;20048;-62
2023/08/05 09:33:06;;;;;;;5.60;3.50;;;;;;;18.55;94.81;101112.72;5096580;28;20059;-63
2023/08/05 09:35:34;;;;;;;8.20;3.60;;;;;;;18.57;92.29;101105.75;5114348;28;20047;-63
2023/08/05 09:38:03;;;;;;;6.95;4.10;;;;;;;18.58;93.17;101103.78;5114220;28;20504;-63
2023/08/05 09:40:39;;;;;;;8.93;4.00;;;;;;;18.59;94.33;101099.88;5113320;28;20361;-65
2023/08/05 09:43:08;;;;;;;8.77;3.92;;;;;;;18.59;94.44;101102.66;5115455;28;20048;-64
2023/08/05 09:45:35;;;;;;;7.63;4.20;;;;;;;18.57;94.86;101091.09;5114593;28;20053;-64
2023/08/05 09:48:04;;;;;;;7.32;4.13;;;;;;;18.56;95.48;101084.78;5111352;28;20043;-64
2023/08/05 09:50:32;;;;;;;8.38;3.80;;;;;;;18.59;94.44;101077.81;5114140;28;20051;-64
2023/08/05 09:53:01;;;;;;;11.52;3.60;;;;;;;18.59;94.47;101084.16;5115074;28;20096;-65
2023/08/05 09:55:29;;;;;;;6.45;3.92;;;;;;;18.61;94.30;101075.56;5094448;28;20054;-64
2023/08/05 09:57:57;;;;;;;9.07;4.10;;;;;;;18.64;94.80;101067.47;5086962;28;20063;-63
2023/08/05 10:00:25;;;;;;;6.40;3.40;;;;;;;18.69;93.06;101064.56;5113342;28;20044;-65
2023/08/05 10:02:53;;;;;;;8.45;3.80;;;;;;;18.75;92.53;101065.25;5112297;28;20070;-65
2023/08/05 10:05:25;;;;;;;9.98;4.03;;;;;;;18.74;91.94;101069.16;5113835;28;20051;-65
2023/08/05 10:07:55;;;;;;;8.30;3.67;;;;;;;18.72;91.67;101061.16;5097945;28;20043;-65
2023/08/05 10:10:24;;;;;;;6.13;3.90;;;;;;;18.71;92.23;101056.78;5112756;28;20047;-64
2023/08/05 10:13:00;;;;;;;7.35;3.85;;;;;;;18.71;93.16;101061.47;5115095;28;20055;-65
2023/08/05 10:15:32;;;;;;;7.03;3.95;;;;;;;18.69;92.86;101056.28;5113456;28;20043;-66
2023/08/05 10:18:00;;;;;;;6.60;3.60;;;;;;;18.65;92.91;101047.00;5097358;28;20460;-64
2023/08/05 10:20:35;;;;;;;6.15;3.40;;;;;;;18.64;93.43;101045.41;5114644;28;20043;-65
2023/08/05 10:23:08;;;;;;;6.22;3.33;;;;;;;18.64;93.85;101037.13;5097345;28;20051;-63
2023/08/05 10:25:44;;;;;;;6.47;3.28;;;;;;;18.68;94.62;101032.56;5096854;28;20055;-62
2023/08/05 10:28:24;;;;;;;10.00;3.50;;;;;;;18.72;94.11;101028.03;5096186;28;20049;-64
2023/08/05 10:30:53;;;;;;;9.65;3.70;;;;;;;18.76;92.92;101027.41;5106796;28;20048;-64
2023/08/05 10:33:22;;;;;;;7.15;3.80;;;;;;;18.78;93.20;101025.16;5113090;28;20044;-64
2023/08/05 10:35:50;;;;;;;6.75;3.63;;;;;;;18.78;93.59;101014.94;5114290;28;20057;-65
2023/08/05 10:38:19;;;;;;;9.77;3.33;;;;;;;18.77;94.50;101009.75;5113676;28;20047;-65
2023/08/05 10:41:03;;;;;;;7.13;3.40;;;;;;;18.80;94.69;101011.88;5113667;28;20407;-66
2023/08/05 10:43:31;;;;;;;5.78;3.33;;;;;;;18.84;95.19;101007.34;5112280;28;20449;-66
2023/08/05 10:46:03;;;;;;;5.28;3.05;;;;;;;18.85;95.39;101004.25;5114346;28;20445;-65
2023/08/05 10:48:41;;;;;;;8.25;3.75;;;;;;;18.88;95.89;101002.78;5113992;28;20044;-65
2023/08/05 10:51:19;;;;;;;6.18;3.33;;;;;;;18.88;94.93;101002.78;5113451;28;20097;-64
2023/08/05 10:53:58;;;;;;;5.55;3.20;;;;;;;18.87;95.27;101007.50;5114070;28;20051;-65
2023/08/05 10:56:43;;;;;;;6.28;3.17;;;;;;;18.88;96.73;101002.78;5114352;28;20043;-66
2023/08/05 10:59:14;;;;;;;6.72;3.50;;;;;;;18.87;99.03;101001.19;5113636;28;20054;-65
2023/08/05 11:01:56;;;;;;;8.05;3.55;;;;;;;18.84;100.00;101001.81;5113943;28;20047;-64
2023/08/05 11:04:28;;;;;;;4.97;3.00;;;;;;;18.79;100.00;100994.50;5114929;28;20059;-67
2023/08/05 11:06:59;;;;;;;6.90;3.30;;;;;;;18.74;100.00;100998.19;5112484;28;20058;-66
2023/08/05 11:09:27;;;;;;;5.85;3.75;;;;;;;18.70;100.00;100999.94;5114553;28;20058;-67
2023/08/05 11:11:55;;;;;;;10.68;4.40;;;;;;;18.66;99.53;101007.22;5113036;28;20048;-67
2023/08/05 11:14:26;;;;;;;7.35;3.78;;;;;;;18.63;99.60;100990.50;5113235;28;20056;-64
2023/08/05 11:17:02;;;;;;;7.43;3.88;;;;;;;18.62;98.80;100992.44;5114370;28;20368;-67
2023/08/05 11:19:49;;;;;;;;;;;;;;;18.64;98.67;100986.59;5113740;28;20044;-66
2023/08/05 11:22:28;;;;;;;6.10;4.18;;;;;;;18.71;96.82;100982.25;5114433;28;20010;-65